Time;durP1;ratioP1;P1;durP2;ratioP2;P2;SDS_P1;SDS_P2;PMS_P1;PMS_P2;Temp;Humidity;BMP_temperature;BMP_pressure;BME280_temperature;BME280_humidity;BME280_pressure;Samples;Min_cycle;Max_cycle;Signal;HPM_P1;HPM_P2
2024/03/05 00:00:12;;;;;;;35.45;19.13;;;;;;;7.19;100.00;99412.69;5085794;28;20043;-76
2024/03/05 00:02:41;;;;;;;35.47;17.50;;;;;;;7.59;100.00;99444.28;5085893;28;20028;-77
2024/03/05 00:05:08;;;;;;;35.10;20.88;;;;;;;7.62;100.00;99433.25;5088412;28;20493;-78
2024/03/05 00:07:37;;;;;;;37.20;21.38;;;;;;;7.44;100.00;99406.63;5089402;28;20751;-77
2024/03/05 00:10:03;;;;;;;37.15;20.60;;;;;;;7.66;100.00;99438.91;5071407;28;20419;-75
2024/03/05 00:12:29;;;;;;;35.35;19.55;;;;;;;7.48;100.00;99430.88;5089794;28;20107;-76
2024/03/05 00:14:55;;;;;;;40.13;20.50;;;;;;;7.61;100.00;99428.94;5089671;28;20028;-76
2024/03/05 00:17:23;;;;;;;41.22;19.85;;;;;;;7.60;100.00;99432.66;5089487;28;20138;-77
2024/03/05 00:19:49;;;;;;;40.35;21.30;;;;;;;7.68;100.00;99433.41;5070923;28;20058;-78
2024/03/05 00:22:14;;;;;;;39.83;21.10;;;;;;;7.56;100.00;99423.50;5071252;28;20435;-77
2024/03/05 00:24:40;;;;;;;41.95;20.88;;;;;;;7.52;100.00;99422.28;5089312;28;20020;-77
2024/03/05 00:27:05;;;;;;;43.10;22.95;;;;;;;7.67;100.00;99423.81;5070814;28;20088;-76
2024/03/05 00:29:31;;;;;;;40.03;22.80;;;;;;;7.54;100.00;99409.63;5068986;28;20028;-77
2024/03/05 00:31:57;;;;;;;40.63;22.00;;;;;;;7.79;100.00;99406.19;5088944;28;20070;-76
2024/03/05 00:34:22;;;;;;;43.95;23.65;;;;;;;7.46;100.00;99417.84;5070801;28;20120;-77
2024/03/05 00:36:49;;;;;;;45.55;24.08;;;;;;;7.26;100.00;99395.94;5104756;28;20036;-76
2024/03/05 00:39:14;;;;;;;47.17;24.08;;;;;;;7.35;100.00;99411.38;5089009;28;20028;-76
2024/03/05 00:41:40;;;;;;;47.60;25.10;;;;;;;7.35;100.00;99405.25;5088730;28;20394;-77
2024/03/05 00:44:05;;;;;;;44.92;24.27;;;;;;;7.30;100.00;99392.63;5070982;28;20556;-76
2024/03/05 00:46:31;;;;;;;45.50;24.10;;;;;;;7.11;100.00;99375.84;5088998;28;20024;-76
2024/03/05 00:48:56;;;;;;;50.28;26.30;;;;;;;7.12;100.00;99385.41;5070855;28;20241;-76
2024/03/05 00:51:23;;;;;;;51.22;26.05;;;;;;;7.23;100.00;99383.91;5070855;28;20067;-77
2024/03/05 00:53:48;;;;;;;55.72;26.85;;;;;;;7.09;100.00;99366.44;5088805;28;20078;-76
2024/03/05 00:56:14;;;;;;;51.55;25.40;;;;;;;7.01;100.00;99346.31;5088676;28;20504;-77
2024/03/05 00:58:39;;;;;;;55.20;25.45;;;;;;;7.05;100.00;99363.44;5088196;28;20028;-77
2024/03/05 01:01:07;;;;;;;48.20;23.90;;;;;;;6.81;100.00;99368.44;5088788;28;20668;-78
2024/03/05 01:03:32;;;;;;;57.08;26.17;;;;;;;6.82;100.00;99379.84;5089159;28;20089;-77
2024/03/05 01:05:58;;;;;;;58.88;25.02;;;;;;;6.56;100.00;99348.97;5088872;28;20493;-77
2024/03/05 01:08:24;;;;;;;52.50;26.70;;;;;;;6.63;100.00;99349.75;5088657;28;20035;-77
2024/03/05 01:10:49;;;;;;;56.10;25.75;;;;;;;6.63;100.00;99360.34;5088621;28;20093;-78
2024/03/05 01:13:14;;;;;;;53.63;25.00;;;;;;;6.43;100.00;99361.22;5088895;28;20024;-77
2024/03/05 01:15:40;;;;;;;51.47;25.48;;;;;;;6.39;100.00;99373.25;5087348;28;20024;-78
2024/03/05 01:18:06;;;;;;;54.88;27.10;;;;;;;6.34;100.00;99367.78;5088136;28;20020;-78
2024/03/05 01:20:31;;;;;;;54.65;24.95;;;;;;;6.20;100.00;99350.31;5070058;28;20042;-78
2024/03/05 01:22:56;;;;;;;53.20;26.23;;;;;;;6.12;100.00;99337.31;5087910;28;20106;-77
2024/03/05 01:25:22;;;;;;;59.55;26.92;;;;;;;6.28;100.00;99359.88;5069919;28;20119;-77
2024/03/05 01:27:47;;;;;;;58.13;27.70;;;;;;;6.17;100.00;99356.84;5087905;28;20091;-78
2024/03/05 01:30:14;;;;;;;58.95;27.02;;;;;;;6.01;100.00;99330.81;5088250;28;20028;-77
2024/03/05 01:32:47;;;;;;;55.97;25.60;;;;;;;6.05;100.00;99358.50;5088499;28;20089;-77
2024/03/05 01:35:13;;;;;;;57.55;27.33;;;;;;;6.06;100.00;99324.91;5087746;28;20730;-76
2024/03/05 01:37:38;;;;;;;60.17;27.58;;;;;;;6.29;100.00;99362.28;5087978;28;20060;-77
2024/03/05 01:40:06;;;;;;;64.63;27.90;;;;;;;6.19;100.00;99361.91;5086387;28;20047;-77
2024/03/05 01:42:32;;;;;;;67.25;28.10;;;;;;;6.00;100.00;99361.75;5087903;28;20046;-77
2024/03/05 01:44:58;;;;;;;69.55;27.63;;;;;;;5.98;100.00;99347.09;5088137;28;20032;-77
2024/03/05 01:47:27;;;;;;;77.78;29.55;;;;;;;5.96;100.00;99351.78;5069245;28;20054;-77
2024/03/05 01:49:54;;;;;;;79.20;29.63;;;;;;;6.15;100.00;99363.34;5087730;28;20032;-77
2024/03/05 01:52:21;;;;;;;82.63;32.37;;;;;;;5.93;100.00;99354.84;5087659;28;20553;-77
2024/03/05 01:54:47;;;;;;;78.75;30.52;;;;;;;6.15;100.00;99363.34;5070204;28;20028;-77
2024/03/05 01:57:13;;;;;;;78.28;29.02;;;;;;;6.08;100.00;99363.38;5087198;28;20032;-76
2024/03/05 01:59:39;;;;;;;79.97;28.95;;;;;;;6.04;100.00;99360.31;5087162;28;20050;-77
2024/03/05 02:02:05;;;;;;;87.45;32.25;;;;;;;5.94;100.00;99344.00;5087774;28;20032;-77
2024/03/05 02:04:32;;;;;;;85.95;31.88;;;;;;;5.98;100.00;99332.03;5069514;28;20034;-77
2024/03/05 02:07:02;;;;;;;87.18;32.25;;;;;;;6.09;100.00;99364.19;5087315;28;20127;-77
2024/03/05 02:09:28;;;;;;;85.22;30.65;;;;;;;6.23;100.00;99355.19;5087421;28;20032;-77
2024/03/05 02:11:53;;;;;;;89.68;30.75;;;;;;;6.29;100.00;99370.25;5069191;28;20028;-77
2024/03/05 02:14:21;;;;;;;94.55;33.67;;;;;;;6.23;100.00;99349.88;5087499;28;20035;-77
2024/03/05 02:16:48;;;;;;;103.45;36.50;;;;;;;6.60;100.00;99364.25;5068743;28;20436;-78
2024/03/05 02:19:13;;;;;;;102.40;36.47;;;;;;;6.43;100.00;99355.94;5087268;28;20067;-77
2024/03/05 02:21:39;;;;;;;118.40;45.45;;;;;;;6.43;100.00;99363.88;5069003;28;20539;-78
2024/03/05 02:24:05;;;;;;;130.15;53.50;;;;;;;6.56;100.00;99373.63;5086822;28;20039;-77
2024/03/05 02:26:31;;;;;;;130.10;54.60;;;;;;;6.64;100.00;99356.69;5086861;28;20047;-77
2024/03/05 02:28:58;;;;;;;119.30;54.30;;;;;;;6.71;100.00;99361.97;5086848;28;20412;-77
2024/03/05 02:31:24;;;;;;;125.75;55.53;;;;;;;6.71;100.00;99325.66;5086988;28;20036;-77
2024/03/05 02:33:51;;;;;;;129.27;58.30;;;;;;;6.43;100.00;99340.03;5087415;28;20449;-77
2024/03/05 02:36:17;;;;;;;113.78;43.83;;;;;;;6.72;100.00;99358.28;5086949;28;20039;-77
2024/03/05 02:38:42;;;;;;;95.43;35.10;;;;;;;6.47;100.00;99337.00;5086667;28;20020;-77
2024/03/05 02:41:08;;;;;;;91.80;32.83;;;;;;;6.42;100.00;99343.72;5068164;28;21054;-78
2024/03/05 02:43:33;;;;;;;83.85;32.47;;;;;;;6.26;100.00;99319.56;5086444;28;20028;-77
2024/03/05 02:45:59;;;;;;;99.07;36.13;;;;;;;6.55;100.00;99347.34;5086576;28;20161;-78
2024/03/05 02:48:25;;;;;;;109.65;39.35;;;;;;;6.60;100.00;99344.91;5068188;28;20115;-77
2024/03/05 02:50:50;;;;;;;101.20;37.33;;;;;;;6.55;100.00;99331.47;5086683;28;20048;-76
2024/03/05 02:53:17;;;;;;;118.63;47.05;;;;;;;6.60;100.00;99344.91;5086649;28;20031;-77
2024/03/05 02:55:43;;;;;;;101.00;41.40;;;;;;;6.80;100.00;99344.78;5086871;28;20036;-77
2024/03/05 02:58:10;;;;;;;104.13;34.58;;;;;;;6.46;100.00;99327.41;5086399;28;20035;-78
2024/03/05 03:00:37;;;;;;;104.57;38.63;;;;;;;6.68;100.00;99330.56;5086437;28;20089;-77
2024/03/05 03:03:04;;;;;;;111.45;41.30;;;;;;;6.75;100.00;99341.97;5086295;28;20028;-78
2024/03/05 03:05:29;;;;;;;98.45;37.03;;;;;;;6.42;100.00;99322.53;5086674;28;20035;-76
2024/03/05 03:07:55;;;;;;;97.75;37.75;;;;;;;6.53;100.00;99339.59;5085692;28;20536;-77
2024/03/05 03:10:20;;;;;;;96.97;36.53;;;;;;;6.64;100.00;99341.59;5086176;28;20515;-77
2024/03/05 03:12:47;;;;;;;110.55;41.25;;;;;;;6.81;100.00;99346.41;5086281;28;20069;-76
2024/03/05 03:15:13;;;;;;;104.15;40.70;;;;;;;6.83;100.00;99337.22;5086476;28;20473;-78
2024/03/05 03:17:42;;;;;;;95.88;36.50;;;;;;;6.72;100.00;99322.00;5086381;28;20031;-77
2024/03/05 03:20:09;;;;;;;98.53;38.08;;;;;;;6.78;100.00;99337.06;5086244;28;20036;-78
2024/03/05 03:22:36;;;;;;;94.65;35.67;;;;;;;7.01;100.00;99320.63;5086698;28;20504;-78
2024/03/05 03:25:01;;;;;;;96.95;31.02;;;;;;;6.96;100.00;99327.56;5068132;28;20135;-76
2024/03/05 03:27:27;;;;;;;98.80;35.38;;;;;;;6.66;100.00;99301.66;5086148;28;20240;-78
2024/03/05 03:29:52;;;;;;;98.60;35.70;;;;;;;6.82;100.00;99321.53;5085924;28;20088;-78
2024/03/05 03:32:21;;;;;;;86.95;32.25;;;;;;;6.75;100.00;99307.53;5086257;28;20398;-77
2024/03/05 03:34:47;;;;;;;96.72;35.05;;;;;;;6.83;100.00;99317.88;5086046;28;20059;-77
2024/03/05 03:37:15;;;;;;;101.93;36.83;;;;;;;6.82;100.00;99319.72;5086207;28;20460;-77
2024/03/05 03:39:44;;;;;;;104.35;37.58;;;;;;;6.89;100.00;99329.47;5086513;28;20784;-76
2024/03/05 03:42:12;;;;;;;95.60;37.72;;;;;;;6.76;100.00;99327.69;5072003;28;20040;-77
2024/03/05 03:44:39;;;;;;;91.32;36.72;;;;;;;6.72;100.00;99314.06;5089846;28;20489;-78
2024/03/05 03:47:08;;;;;;;98.22;37.47;;;;;;;6.84;100.00;99319.47;5090124;28;20072;-77
2024/03/05 03:49:35;;;;;;;95.15;36.60;;;;;;;7.12;100.00;99342.97;5090165;28;20047;-77
2024/03/05 03:52:01;;;;;;;99.65;38.15;;;;;;;7.11;100.00;99336.06;5072081;28;20097;-77
2024/03/05 03:54:26;;;;;;;103.40;37.95;;;;;;;7.13;100.00;99322.56;5090134;28;20024;-76
2024/03/05 03:56:52;;;;;;;90.22;34.17;;;;;;;7.11;100.00;99348.47;5089906;28;20027;-78
2024/03/05 03:59:18;;;;;;;96.32;37.47;;;;;;;6.93;100.00;99333.31;5089876;28;20012;-77
2024/03/05 04:01:48;;;;;;;94.57;35.83;;;;;;;6.96;100.00;99344.28;5089810;28;20059;-77
2024/03/05 04:04:13;;;;;;;113.20;44.30;;;;;;;6.99;100.00;99338.56;5089822;28;20032;-77
2024/03/05 04:06:39;;;;;;;96.38;36.35;;;;;;;7.19;100.00;99353.53;5089392;28;20027;-77
2024/03/05 04:09:08;;;;;;;106.35;42.00;;;;;;;6.93;100.00;99328.81;5071168;28;20533;-77
2024/03/05 04:11:35;;;;;;;98.57;37.42;;;;;;;7.02;100.00;99342.63;5071295;28;20024;-76
2024/03/05 04:14:00;;;;;;;101.88;39.50;;;;;;;6.97;100.00;99329.22;5089587;28;20616;-77
2024/03/05 04:16:26;;;;;;;102.30;39.55;;;;;;;6.89;100.00;99326.81;5089819;28;20103;-78
2024/03/05 04:18:51;;;;;;;108.85;44.00;;;;;;;6.80;100.00;99324.41;5089563;28;20077;-76
2024/03/05 04:21:17;;;;;;;96.22;36.97;;;;;;;6.97;100.00;99327.38;5071466;28;20073;-76
2024/03/05 04:23:42;;;;;;;99.70;38.60;;;;;;;7.04;100.00;99324.66;5089544;28;20020;-77
2024/03/05 04:26:13;;;;;;;108.50;42.10;;;;;;;6.93;100.00;99325.38;5089475;28;20055;-77
2024/03/05 04:28:48;;;;;;;95.00;36.42;;;;;;;7.20;100.00;99344.56;5088801;28;20071;-77
2024/03/05 04:31:15;;;;;;;97.63;35.22;;;;;;;7.35;100.00;99342.41;5089029;28;20023;-77
2024/03/05 04:33:42;;;;;;;101.40;32.08;;;;;;;7.09;100.00;99311.59;5089289;28;20060;-78
2024/03/05 04:36:09;;;;;;;100.68;36.03;;;;;;;7.39;100.00;99329.53;5089426;28;20031;-77
2024/03/05 04:38:38;;;;;;;85.40;30.48;;;;;;;7.29;100.00;99342.44;5088868;28;20057;-77
2024/03/05 04:41:04;;;;;;;94.90;32.90;;;;;;;7.37;100.00;99344.84;5089041;28;20040;-76
2024/03/05 04:43:30;;;;;;;91.50;33.75;;;;;;;7.51;100.00;99333.09;5070864;28;20081;-77
2024/03/05 04:45:56;;;;;;;93.65;34.25;;;;;;;7.38;100.00;99323.41;5088942;28;20036;-76
2024/03/05 04:48:22;;;;;;;92.85;33.88;;;;;;;7.31;100.00;99340.41;5088674;28;20031;-78
2024/03/05 04:50:47;;;;;;;97.10;33.10;;;;;;;7.31;100.00;99316.53;5070390;28;20409;-76
2024/03/05 04:53:12;;;;;;;90.18;34.22;;;;;;;7.19;100.00;99311.94;5088999;28;20032;-77
2024/03/05 04:55:38;;;;;;;95.10;33.33;;;;;;;7.09;100.00;99316.91;5088928;28;20055;-77
2024/03/05 04:58:05;;;;;;;84.82;32.53;;;;;;;7.24;100.00;99333.31;5070300;28;20032;-78
2024/03/05 05:00:30;;;;;;;85.70;32.33;;;;;;;7.01;100.00;99341.03;5088098;28;20035;-78
2024/03/05 05:02:56;;;;;;;79.97;31.42;;;;;;;7.06;100.00;99333.22;5088805;28;20036;-78
2024/03/05 05:05:31;;;;;;;95.15;33.50;;;;;;;7.20;100.00;99345.38;5088507;28;20089;-79
2024/03/05 05:07:57;;;;;;;95.82;33.28;;;;;;;7.44;100.00;99345.63;5088459;28;20040;-78
2024/03/05 05:10:22;;;;;;;130.88;37.10;;;;;;;7.43;100.00;99343.97;5088911;28;20047;-78
2024/03/05 05:12:47;;;;;;;104.32;39.80;;;;;;;7.33;100.00;99330.38;5088357;28;20520;-78
2024/03/05 05:15:14;;;;;;;96.80;35.05;;;;;;;7.26;100.00;99353.50;5088311;28;20032;-77
2024/03/05 05:17:39;;;;;;;94.43;35.08;;;;;;;7.34;100.00;99351.41;5088286;28;20031;-78
2024/03/05 05:20:07;;;;;;;91.10;36.50;;;;;;;7.12;100.00;99331.56;5087753;28;20044;-78
2024/03/05 05:22:33;;;;;;;91.53;33.08;;;;;;;7.32;100.00;99339.38;5088074;28;20131;-78
2024/03/05 05:24:58;;;;;;;92.63;34.45;;;;;;;7.20;100.00;99341.91;5088258;28;20058;-77
2024/03/05 05:27:24;;;;;;;94.50;34.78;;;;;;;7.26;100.00;99338.41;5087853;28;20044;-78
2024/03/05 05:29:49;;;;;;;104.32;35.05;;;;;;;7.18;100.00;99342.13;5069641;28;20024;-77
2024/03/05 05:32:15;;;;;;;92.88;33.97;;;;;;;7.21;100.00;99352.31;5087956;28;20036;-77
2024/03/05 05:34:40;;;;;;;96.25;35.00;;;;;;;7.38;100.00;99341.19;5087996;28;20039;-79
2024/03/05 05:37:06;;;;;;;93.28;34.58;;;;;;;7.12;100.00;99342.16;5088171;28;20024;-79
2024/03/05 05:39:32;;;;;;;97.53;36.47;;;;;;;7.24;100.00;99341.25;5069594;28;20530;-77
2024/03/05 05:41:57;;;;;;;85.57;33.03;;;;;;;7.32;100.00;99337.53;5087844;28;20038;-77
2024/03/05 05:44:23;;;;;;;100.38;35.75;;;;;;;7.31;100.00;99337.75;5087511;28;20024;-77
2024/03/05 05:46:48;;;;;;;96.32;35.80;;;;;;;7.45;100.00;99342.72;5087923;28;20119;-77
2024/03/05 05:49:19;;;;;;;94.63;34.13;;;;;;;7.61;100.00;99343.22;5076295;28;20028;-77
2024/03/05 05:51:45;;;;;;;88.65;34.42;;;;;;;7.39;100.00;99337.47;5069377;28;20058;-79
2024/03/05 05:54:11;;;;;;;78.55;30.98;;;;;;;7.41;100.00;99344.19;5088074;28;20169;-77
2024/03/05 05:56:37;;;;;;;94.47;35.50;;;;;;;7.33;100.00;99341.00;5087634;28;20455;-77
2024/03/05 05:59:05;;;;;;;109.80;40.65;;;;;;;7.37;100.00;99335.03;5069040;28;20032;-78
2024/03/05 06:01:33;;;;;;;186.95;75.43;;;;;;;7.44;100.00;99342.97;5068585;28;20051;-77
2024/03/05 06:03:59;;;;;;;254.45;114.07;;;;;;;7.62;100.00;99332.41;5087382;28;20024;-78
2024/03/05 06:06:25;;;;;;;106.10;42.83;;;;;;;7.42;100.00;99334.41;5088033;28;20039;-78
2024/03/05 06:08:51;;;;;;;183.30;92.18;;;;;;;7.38;100.00;99331.38;5069722;28;20070;-76
2024/03/05 06:11:16;;;;;;;90.05;36.00;;;;;;;7.44;100.00;99321.75;5087489;28;20126;-78
2024/03/05 06:13:43;;;;;;;112.53;54.22;;;;;;;7.43;100.00;99322.75;5087126;28;20222;-78
2024/03/05 06:16:08;;;;;;;90.60;44.08;;;;;;;7.63;100.00;99323.41;5087320;28;20423;-78
2024/03/05 06:18:35;;;;;;;83.38;34.30;;;;;;;7.59;100.00;99327.53;5068702;28;20025;-78
2024/03/05 06:21:02;;;;;;;86.03;40.58;;;;;;;7.43;100.00;99301.53;5087235;28;20380;-78
2024/03/05 06:23:28;;;;;;;85.97;34.97;;;;;;;7.49;100.00;99299.88;5087008;28;20043;-77
2024/03/05 06:25:54;;;;;;;91.78;36.85;;;;;;;7.70;100.00;99322.53;5087015;28;20043;-78
2024/03/05 06:28:19;;;;;;;84.80;33.58;;;;;;;7.73;100.00;99335.38;5068367;28;20048;-78
2024/03/05 06:30:46;;;;;;;85.03;33.35;;;;;;;7.59;100.00;99332.81;5086464;28;20031;-78
2024/03/05 06:33:12;;;;;;;80.13;33.72;;;;;;;7.77;100.00;99325.94;5074569;28;20062;-78
2024/03/05 06:35:38;;;;;;;80.32;34.75;;;;;;;8.03;100.00;99328.34;5084514;28;20027;-77
2024/03/05 06:38:07;;;;;;;86.68;40.38;;;;;;;7.72;100.00;99297.38;5086118;28;20092;-78
2024/03/05 06:40:32;;;;;;;71.18;32.22;;;;;;;8.06;100.00;99319.13;5086245;28;20020;-78
2024/03/05 06:43:04;;;;;;;79.70;32.65;;;;;;;8.44;100.00;99324.25;5081922;28;20051;-78
2024/03/05 06:45:34;;;;;;;80.07;34.10;;;;;;;8.08;100.00;99319.72;5086539;28;20493;-78
2024/03/05 06:48:01;;;;;;;78.47;34.70;;;;;;;8.09;100.00;99325.81;5086146;28;20715;-77
2024/03/05 06:50:41;;;;;;;69.13;33.28;;;;;;;7.97;100.00;99317.78;5085734;28;20020;-78
2024/03/05 06:58:41;;;;;;;93.13;43.28;;;;;;;7.92;100.00;99325.59;5084749;28;20460;-78
2024/03/05 07:01:08;;;;;;;78.72;32.70;;;;;;;7.82;100.00;99320.78;5083169;28;20032;-78
2024/03/05 07:03:38;;;;;;;79.97;35.38;;;;;;;7.93;100.00;99333.34;5086130;28;20036;-78
2024/03/05 07:06:08;;;;;;;72.63;33.58;;;;;;;7.90;100.00;99325.00;5086332;28;20028;-78
2024/03/05 07:08:40;;;;;;;77.10;34.15;;;;;;;7.97;100.00;99321.25;5085942;28;20664;-77
2024/03/05 07:11:11;;;;;;;71.72;32.83;;;;;;;9.97;100.00;99326.44;5073178;28;20035;-77
2024/03/05 07:13:42;;;;;;;67.13;28.90;;;;;;;8.67;100.00;99324.59;5085362;28;20089;-77
2024/03/05 07:16:17;;;;;;;70.50;29.50;;;;;;;8.16;100.00;99315.97;5086162;28;20031;-77
2024/03/05 07:18:44;;;;;;;73.20;30.75;;;;;;;8.64;100.00;99321.34;5083538;28;20126;-77
2024/03/05 07:21:09;;;;;;;69.28;29.65;;;;;;;8.02;100.00;99299.34;5082702;28;20016;-78
2024/03/05 07:23:35;;;;;;;70.65;31.02;;;;;;;8.18;100.00;99313.88;5086256;28;20096;-78
2024/03/05 07:26:01;;;;;;;73.68;32.85;;;;;;;8.54;100.00;99341.47;5073571;28;20032;-77
2024/03/05 07:28:27;;;;;;;73.80;31.38;;;;;;;7.77;100.00;99302.06;5085615;28;20122;-78
2024/03/05 07:30:53;;;;;;;76.18;31.80;;;;;;;7.70;100.00;99327.84;5086074;28;20024;-78
2024/03/05 07:33:19;;;;;;;75.00;31.52;;;;;;;8.22;100.00;99346.94;5086143;28;20056;-77
2024/03/05 07:35:46;;;;;;;74.82;31.02;;;;;;;8.30;100.00;99343.19;5077111;28;20032;-78
2024/03/05 07:38:12;;;;;;;71.25;30.02;;;;;;;8.11;100.00;99342.34;5050491;28;20074;-78
2024/03/05 07:40:37;;;;;;;75.93;33.63;;;;;;;7.99;100.00;99348.41;5086199;28;20229;-78
2024/03/05 07:43:04;;;;;;;82.68;33.55;;;;;;;7.85;100.00;99352.22;5087011;28;20898;-77
2024/03/05 07:45:30;;;;;;;72.18;31.67;;;;;;;7.77;100.00;99357.81;5087028;28;20059;-77
2024/03/05 07:47:57;;;;;;;79.45;36.00;;;;;;;7.86;100.00;99364.44;5088479;28;20614;-78
2024/03/05 07:50:22;;;;;;;76.43;32.88;;;;;;;7.80;100.00;99360.81;5097538;28;20084;-77
2024/03/05 07:52:50;;;;;;;78.10;34.28;;;;;;;7.86;100.00;99348.50;5078846;28;20067;-78
2024/03/05 07:55:18;;;;;;;73.25;33.38;;;;;;;7.76;100.00;99346.34;5098541;28;20020;-77
2024/03/05 07:57:44;;;;;;;91.55;42.55;;;;;;;7.96;100.00;99361.28;5098545;28;20532;-77
2024/03/05 08:00:13;;;;;;;71.75;31.65;;;;;;;8.02;100.00;99347.16;5098080;28;20032;-76
2024/03/05 08:02:44;;;;;;;133.02;66.10;;;;;;;8.17;100.00;99354.75;5097058;28;20104;-77
2024/03/05 08:05:09;;;;;;;73.45;32.47;;;;;;;8.09;100.00;99357.69;5096770;28;20071;-77
2024/03/05 08:07:36;;;;;;;93.63;45.05;;;;;;;7.85;100.00;99320.34;5094560;28;20083;-78
2024/03/05 08:10:07;;;;;;;87.50;37.90;;;;;;;8.01;100.00;99346.34;5076530;28;20036;-78
2024/03/05 08:12:38;;;;;;;73.78;33.83;;;;;;;8.00;100.00;99343.91;5077035;28;20032;-79
2024/03/05 08:15:06;;;;;;;78.05;33.40;;;;;;;7.94;100.00;99340.25;5076941;28;20390;-78
2024/03/05 08:17:35;;;;;;;91.28;40.90;;;;;;;8.22;100.00;99362.88;5093834;28;20059;-78
2024/03/05 08:20:01;;;;;;;91.97;38.70;;;;;;;8.00;100.00;99312.03;5092034;28;20043;-79
2024/03/05 08:22:27;;;;;;;71.82;31.70;;;;;;;7.89;100.00;99326.84;5085083;28;20028;-78
2024/03/05 08:24:53;;;;;;;76.93;31.70;;;;;;;8.22;100.00;99347.75;5059943;28;20047;-78
2024/03/05 08:27:18;;;;;;;81.95;38.30;;;;;;;8.31;100.00;99342.94;5063194;28;20425;-77
2024/03/05 08:29:44;;;;;;;110.07;48.33;;;;;;;8.99;100.00;99341.09;5080576;28;20413;-77
2024/03/05 08:32:11;;;;;;;61.90;29.75;;;;;;;8.67;100.00;99353.81;5087720;28;20236;-77
2024/03/05 08:34:40;;;;;;;62.53;29.42;;;;;;;8.43;100.00;99351.81;5084679;28;20026;-77
2024/03/05 08:37:05;;;;;;;69.78;31.80;;;;;;;8.68;100.00;99350.91;5085753;28;20047;-77
2024/03/05 08:39:36;;;;;;;78.70;44.92;;;;;;;8.58;100.00;99329.38;5081536;28;20031;-77
2024/03/05 08:42:02;;;;;;;100.47;54.33;;;;;;;8.65;100.00;99325.59;5089121;28;20440;-77
2024/03/05 08:44:28;;;;;;;69.65;32.28;;;;;;;8.53;100.00;99343.34;5088821;28;20500;-76
2024/03/05 08:46:53;;;;;;;70.57;29.50;;;;;;;8.49;100.00;99349.31;5070425;28;20409;-77
2024/03/05 08:49:19;;;;;;;70.13;33.00;;;;;;;8.50;100.00;99337.66;5089301;28;20113;-77
2024/03/05 08:51:45;;;;;;;70.18;32.88;;;;;;;8.69;100.00;99363.19;5089172;28;20032;-77
2024/03/05 08:54:10;;;;;;;72.15;41.60;;;;;;;8.93;100.00;99355.31;5088900;28;20562;-77
2024/03/05 08:56:39;;;;;;;61.95;28.75;;;;;;;8.93;100.00;99356.13;5088832;28;20039;-78
2024/03/05 08:59:06;;;;;;;66.25;30.75;;;;;;;8.68;100.00;99353.56;5068325;28;20032;-78
2024/03/05 09:01:33;;;;;;;98.15;47.60;;;;;;;8.74;100.00;99344.72;5079337;28;20043;-76
2024/03/05 09:04:00;;;;;;;65.90;31.67;;;;;;;8.57;100.00;99344.50;5068243;28;20047;-77
2024/03/05 09:06:27;;;;;;;63.03;28.85;;;;;;;8.51;100.00;99360.56;5079028;28;20040;-78
2024/03/05 09:08:52;;;;;;;73.68;41.63;;;;;;;8.73;100.00;99359.03;5088280;28;20046;-79
2024/03/05 09:11:18;;;;;;;63.42;30.90;;;;;;;8.65;100.00;99362.81;5088163;28;20107;-77
2024/03/05 09:13:46;;;;;;;67.82;32.63;;;;;;;8.88;100.00;99360.50;5082707;28;20024;-77
2024/03/05 09:16:12;;;;;;;65.32;32.80;;;;;;;8.85;100.00;99357.25;5088780;28;20094;-76
2024/03/05 09:18:38;;;;;;;66.38;33.05;;;;;;;9.22;100.00;99361.66;5070406;28;20545;-77
2024/03/05 09:21:06;;;;;;;59.78;28.45;;;;;;;8.93;100.00;99357.97;5088283;28;20136;-77
2024/03/05 09:23:31;;;;;;;57.57;30.03;;;;;;;8.94;100.00;99348.97;5088203;28;20028;-76
2024/03/05 09:25:57;;;;;;;59.05;28.70;;;;;;;8.92;100.00;99369.66;5087865;28;20028;-77
2024/03/05 09:28:22;;;;;;;60.45;32.72;;;;;;;8.97;100.00;99367.09;5089497;28;20048;-77
2024/03/05 09:30:48;;;;;;;62.53;29.15;;;;;;;8.80;100.00;99354.44;5088356;28;20593;-77
2024/03/05 09:33:13;;;;;;;60.95;30.55;;;;;;;8.76;100.00;99363.09;5087758;28;20032;-77
2024/03/05 09:35:40;;;;;;;71.57;34.85;;;;;;;9.01;100.00;99381.56;5069852;28;20032;-77
2024/03/05 09:38:05;;;;;;;60.42;30.83;;;;;;;8.95;100.00;99378.00;5068812;28;20456;-77
2024/03/05 09:40:30;;;;;;;68.32;33.65;;;;;;;9.00;100.00;99375.47;5069567;28;20504;-77
2024/03/05 09:42:59;;;;;;;55.33;27.33;;;;;;;8.95;100.00;99382.47;5087021;28;20625;-77
2024/03/05 09:45:28;;;;;;;70.60;36.10;;;;;;;9.30;100.00;99379.16;5088270;28;20057;-78
2024/03/05 09:47:54;;;;;;;67.28;34.92;;;;;;;9.08;100.00;99368.22;5069854;28;20454;-79
2024/03/05 09:50:21;;;;;;;92.68;44.20;;;;;;;9.27;100.00;99363.63;5084303;28;20035;-77
2024/03/05 09:52:47;;;;;;;105.75;57.90;;;;;;;9.57;100.00;99375.03;5088635;28;20036;-78
2024/03/05 09:55:12;;;;;;;127.82;74.90;;;;;;;9.25;100.00;99361.19;5087847;28;20028;-77
2024/03/05 09:57:40;;;;;;;93.35;49.00;;;;;;;9.13;100.00;99369.13;5067202;28;20036;-78
2024/03/05 10:00:17;;;;;;;103.82;61.25;;;;;;;9.23;100.00;99385.38;5088454;28;20056;-79
2024/03/05 10:02:50;;;;;;;127.63;67.53;;;;;;;9.41;100.00;99367.72;5069984;28;20070;-78
2024/03/05 10:05:18;;;;;;;107.65;55.60;;;;;;;9.50;100.00;99379.66;5070618;28;20109;-78
2024/03/05 10:07:46;;;;;;;100.22;54.78;;;;;;;9.14;100.00;99354.81;5075896;28;20145;-78
2024/03/05 10:10:12;;;;;;;78.03;40.00;;;;;;;9.18;100.00;99361.31;5088024;28;20039;-77
2024/03/05 10:12:39;;;;;;;96.00;50.53;;;;;;;9.36;100.00;99378.25;5086537;28;20386;-78
2024/03/05 10:15:11;;;;;;;76.25;41.10;;;;;;;9.25;100.00;99366.50;5075457;28;20020;-78
2024/03/05 10:17:42;;;;;;;65.28;31.98;;;;;;;9.34;100.00;99380.31;5086991;28;20028;-78
2024/03/05 10:20:10;;;;;;;67.25;36.40;;;;;;;9.10;100.00;99366.94;5087005;28;20501;-78
2024/03/05 10:22:36;;;;;;;69.45;39.22;;;;;;;9.24;100.00;99355.06;5087039;28;20557;-77
2024/03/05 10:25:06;;;;;;;87.32;53.03;;;;;;;9.31;100.00;99364.81;5087226;28;20040;-77
2024/03/05 10:27:33;;;;;;;67.25;36.22;;;;;;;9.62;100.00;99375.19;5086661;28;20183;-77
2024/03/05 10:29:59;;;;;;;49.90;25.48;;;;;;;9.37;100.00;99367.34;5068396;28;20028;-78
2024/03/05 10:32:26;;;;;;;71.80;41.45;;;;;;;9.45;100.00;99371.53;5075733;28;20039;-78
2024/03/05 10:34:51;;;;;;;66.87;39.40;;;;;;;9.48;100.00;99367.59;5072146;28;20570;-79
2024/03/05 10:37:17;;;;;;;54.17;30.80;;;;;;;9.40;100.00;99360.78;5085999;28;20032;-77
2024/03/05 10:39:42;;;;;;;49.55;26.95;;;;;;;9.49;100.00;99378.03;5086379;28;20031;-76
2024/03/05 10:42:11;;;;;;;59.90;33.50;;;;;;;9.58;100.00;99358.03;5082928;28;20036;-76
2024/03/05 10:44:38;;;;;;;42.58;24.77;;;;;;;9.71;100.00;99361.53;5086465;28;20058;-77
2024/03/05 10:47:06;;;;;;;49.03;29.05;;;;;;;9.78;100.00;99364.88;5086607;28;20103;-78
2024/03/05 10:49:35;;;;;;;53.10;29.02;;;;;;;9.71;100.00;99364.19;5102269;28;20051;-77
2024/03/05 10:52:03;;;;;;;104.85;66.82;;;;;;;9.81;100.00;99359.09;5086086;28;20071;-76
2024/03/05 10:54:30;;;;;;;51.90;33.83;;;;;;;9.77;100.00;99350.75;5080467;28;20093;-76
2024/03/05 10:56:56;;;;;;;42.28;23.60;;;;;;;9.85;100.00;99357.59;5084556;28;20035;-77
2024/03/05 10:59:41;;;;;;;45.60;26.35;;;;;;;9.81;100.00;99361.75;5086345;28;20480;-76
2024/03/05 11:02:11;;;;;;;53.85;30.52;;;;;;;9.75;100.00;99349.38;5086235;28;20039;-77
2024/03/05 11:04:42;;;;;;;58.08;34.08;;;;;;;9.74;100.00;99363.72;5081658;28;20032;-76
2024/03/05 11:07:10;;;;;;;114.43;70.53;;;;;;;9.74;100.00;99342.41;5059774;28;20081;-76
2024/03/05 11:09:36;;;;;;;54.60;34.55;;;;;;;9.99;100.00;99369.66;5085593;28;20081;-77
2024/03/05 11:12:07;;;;;;;45.50;26.92;;;;;;;10.00;100.00;99360.59;5085780;28;20055;-76
2024/03/05 11:14:35;;;;;;;49.30;27.05;;;;;;;9.75;100.00;99370.69;5084354;28;20059;-77
2024/03/05 11:17:09;;;;;;;79.20;45.47;;;;;;;9.69;100.00;99344.97;5085103;28;20482;-77
2024/03/05 11:19:37;;;;;;;53.03;30.25;;;;;;;9.80;100.00;99368.91;5086116;28;20032;-76